Strona główna
METAR-TAF:

METAR-TAF

Lotnisko :

Mariental, Namibia

Szerokość geograficzna: 24-36-20S, Długość geograficzna: 17-55-30E, wysokość: 1113 m

Aktualna obserwacja pogody

Raport powstał 43 minut temu, godzina 06:00 UTC
Wiatr 2 kt od wschodnio-północny wschód
Temperatura 14°C
Wilgotność 24%
Ciśnienie 1031 hPa

METAR: FYML 230600Z AUTO 06002KT //// // ////// 14/M06 Q1031

czas: 07:43 (06:43 UTC)


TAF: brakujący

Obserwacja i prognoza pogody dla ponad 4000 lotnisk (raport METAR i TAF).

Dostępne stacje oznaczono żółtymi i czerwonymi punktami na mapie.

Najedź kursorem aby zobaczyć nazwę stacji.

Kliknij aby zobaczyć obserwacje i prognozy pogody.

Aby zmienić mapę: kliknij na zielony przycisk z czarnym krzyżykiem, aby powiększyć; na zielony przycisk z myślnikiem, aby pomniejszyć; na zielone strzałki, aby przejść do map sąsiednich.


METAR-TAF: